sensor_id;sensor_type;location;lat;lon;timestamp;pressure;altitude;pressure_sealevel;temperature;humidity
73106;BME280;61559;50.476;15.588;2024-01-15T00:00:48;95836.90;;;-1.49;87.93
73106;BME280;61559;50.476;15.588;2024-01-15T00:03:39;95832.95;;;-1.48;88.09
73106;BME280;61559;50.476;15.588;2024-01-15T00:06:11;95832.63;;;-1.46;87.95
73106;BME280;61559;50.476;15.588;2024-01-15T00:08:43;95819.50;;;-1.45;87.86
73106;BME280;61559;50.476;15.588;2024-01-15T00:11:14;95814.49;;;-1.45;87.76
73106;BME280;61559;50.476;15.588;2024-01-15T00:13:45;95811.06;;;-1.46;88.01
73106;BME280;61559;50.476;15.588;2024-01-15T00:16:16;95808.39;;;-1.46;87.93
73106;BME280;61559;50.476;15.588;2024-01-15T00:18:48;95805.83;;;-1.46;87.65
73106;BME280;61559;50.476;15.588;2024-01-15T00:21:19;95798.50;;;-1.46;87.82
73106;BME280;61559;50.476;15.588;2024-01-15T00:23:50;95792.54;;;-1.45;88.03
73106;BME280;61559;50.476;15.588;2024-01-15T00:26:21;95788.30;;;-1.46;87.96
73106;BME280;61559;50.476;15.588;2024-01-15T00:28:52;95783.98;;;-1.47;87.93
73106;BME280;61559;50.476;15.588;2024-01-15T00:31:24;95778.98;;;-1.48;87.96
73106;BME280;61559;50.476;15.588;2024-01-15T00:33:55;95770.24;;;-1.48;87.92
73106;BME280;61559;50.476;15.588;2024-01-15T00:36:27;95766.20;;;-1.48;87.98
73106;BME280;61559;50.476;15.588;2024-01-15T00:38:58;95762.88;;;-1.48;87.97
73106;BME280;61559;50.476;15.588;2024-01-15T00:41:30;95754.05;;;-1.48;87.90
73106;BME280;61559;50.476;15.588;2024-01-15T00:44:01;95745.98;;;-1.49;87.74
73106;BME280;61559;50.476;15.588;2024-01-15T00:46:32;95742.31;;;-1.51;87.65
73106;BME280;61559;50.476;15.588;2024-01-15T00:49:04;95742.92;;;-1.51;87.65
73106;BME280;61559;50.476;15.588;2024-01-15T00:51:35;95739.45;;;-1.52;87.53
73106;BME280;61559;50.476;15.588;2024-01-15T00:54:06;95737.58;;;-1.51;87.59
73106;BME280;61559;50.476;15.588;2024-01-15T00:56:38;95743.02;;;-1.51;87.64
73106;BME280;61559;50.476;15.588;2024-01-15T00:59:09;95741.11;;;-1.51;87.36
73106;BME280;61559;50.476;15.588;2024-01-15T01:01:45;95744.80;;;-1.51;87.54
73106;BME280;61559;50.476;15.588;2024-01-15T01:04:18;95742.67;;;-1.52;87.44
73106;BME280;61559;50.476;15.588;2024-01-15T01:06:49;95739.35;;;-1.52;87.51
73106;BME280;61559;50.476;15.588;2024-01-15T01:09:20;95737.16;;;-1.51;87.36
73106;BME280;61559;50.476;15.588;2024-01-15T01:11:51;95742.09;;;-1.49;87.33
73106;BME280;61559;50.476;15.588;2024-01-15T01:14:22;95739.26;;;-1.49;87.38
73106;BME280;61559;50.476;15.588;2024-01-15T01:16:54;95735.11;;;-1.48;87.11
73106;BME280;61559;50.476;15.588;2024-01-15T01:19:25;95723.55;;;-1.47;86.76
73106;BME280;61559;50.476;15.588;2024-01-15T01:21:55;95728.78;;;-1.46;86.87
73106;BME280;61559;50.476;15.588;2024-01-15T01:24:26;95726.83;;;-1.48;86.64
73106;BME280;61559;50.476;15.588;2024-01-15T01:26:58;95720.08;;;-1.49;86.40
73106;BME280;61559;50.476;15.588;2024-01-15T01:29:29;95719.77;;;-1.49;86.40
73106;BME280;61559;50.476;15.588;2024-01-15T01:31:59;95724.52;;;-1.49;86.16
73106;BME280;61559;50.476;15.588;2024-01-15T01:34:32;95725.45;;;-1.50;86.35
73106;BME280;61559;50.476;15.588;2024-01-15T01:37:04;95730.49;;;-1.50;86.31
73106;BME280;61559;50.476;15.588;2024-01-15T01:39:35;95731.55;;;-1.51;86.25
73106;BME280;61559;50.476;15.588;2024-01-15T01:42:07;95722.77;;;-1.50;86.16
73106;BME280;61559;50.476;15.588;2024-01-15T01:44:39;95711.71;;;-1.51;86.28
73106;BME280;61559;50.476;15.588;2024-01-15T01:47:10;95713.69;;;-1.50;86.17
73106;BME280;61559;50.476;15.588;2024-01-15T01:49:41;95699.85;;;-1.50;86.12
73106;BME280;61559;50.476;15.588;2024-01-15T01:52:13;95700.97;;;-1.51;86.52
73106;BME280;61559;50.476;15.588;2024-01-15T01:54:43;95695.22;;;-1.52;86.14
73106;BME280;61559;50.476;15.588;2024-01-15T01:57:15;95684.77;;;-1.53;86.10
73106;BME280;61559;50.476;15.588;2024-01-15T01:59:47;95675.66;;;-1.53;85.81
73106;BME280;61559;50.476;15.588;2024-01-15T02:02:19;95667.20;;;-1.55;85.62
73106;BME280;61559;50.476;15.588;2024-01-15T02:04:51;95677.95;;;-1.55;85.55
73106;BME280;61559;50.476;15.588;2024-01-15T02:07:22;95676.23;;;-1.56;85.51
73106;BME280;61559;50.476;15.588;2024-01-15T02:09:54;95665.15;;;-1.57;85.56
73106;BME280;61559;50.476;15.588;2024-01-15T02:12:28;95664.59;;;-1.56;85.39
73106;BME280;61559;50.476;15.588;2024-01-15T02:14:59;95662.48;;;-1.57;85.32
73106;BME280;61559;50.476;15.588;2024-01-15T02:17:30;95658.55;;;-1.57;85.29
73106;BME280;61559;50.476;15.588;2024-01-15T02:20:02;95657.14;;;-1.58;85.19
73106;BME280;61559;50.476;15.588;2024-01-15T02:22:33;95662.64;;;-1.58;85.29
73106;BME280;61559;50.476;15.588;2024-01-15T02:25:05;95655.52;;;-1.57;85.31
73106;BME280;61559;50.476;15.588;2024-01-15T02:27:36;95656.27;;;-1.57;85.18
73106;BME280;61559;50.476;15.588;2024-01-15T02:30:10;95647.17;;;-1.57;85.13
73106;BME280;61559;50.476;15.588;2024-01-15T02:32:42;95651.86;;;-1.56;85.26
73106;BME280;61559;50.476;15.588;2024-01-15T02:35:13;95645.57;;;-1.57;85.76
73106;BME280;61559;50.476;15.588;2024-01-15T02:37:44;95648.58;;;-1.59;86.28
73106;BME280;61559;50.476;15.588;2024-01-15T02:40:16;95649.01;;;-1.61;86.72
73106;BME280;61559;50.476;15.588;2024-01-15T02:42:45;95653.65;;;-1.65;86.68
73106;BME280;61559;50.476;15.588;2024-01-15T02:45:17;95648.72;;;-1.69;87.00
73106;BME280;61559;50.476;15.588;2024-01-15T02:47:48;95645.75;;;-1.71;86.96
73106;BME280;61559;50.476;15.588;2024-01-15T02:50:19;95646.48;;;-1.72;87.10
73106;BME280;61559;50.476;15.588;2024-01-15T02:52:50;95646.80;;;-1.73;86.93
73106;BME280;61559;50.476;15.588;2024-01-15T02:55:22;95643.13;;;-1.73;86.97
73106;BME280;61559;50.476;15.588;2024-01-15T02:57:53;95644.55;;;-1.74;87.11
73106;BME280;61559;50.476;15.588;2024-01-15T03:00:25;95640.34;;;-1.76;87.21
73106;BME280;61559;50.476;15.588;2024-01-15T03:02:56;95638.11;;;-1.78;87.51
73106;BME280;61559;50.476;15.588;2024-01-15T03:05:27;95636.30;;;-1.79;87.44
73106;BME280;61559;50.476;15.588;2024-01-15T03:07:59;95631.11;;;-1.80;87.40
73106;BME280;61559;50.476;15.588;2024-01-15T03:10:31;95628.14;;;-1.80;87.25
73106;BME280;61559;50.476;15.588;2024-01-15T03:13:02;95627.02;;;-1.79;87.30
73106;BME280;61559;50.476;15.588;2024-01-15T03:15:33;95626.97;;;-1.79;87.22
73106;BME280;61559;50.476;15.588;2024-01-15T03:18:06;95625.61;;;-1.79;87.35
73106;BME280;61559;50.476;15.588;2024-01-15T03:20:37;95625.40;;;-1.79;87.16
73106;BME280;61559;50.476;15.588;2024-01-15T03:23:08;95629.33;;;-1.78;87.42
73106;BME280;61559;50.476;15.588;2024-01-15T03:25:40;95623.48;;;-1.78;87.13
73106;BME280;61559;50.476;15.588;2024-01-15T03:28:12;95619.79;;;-1.78;87.16
73106;BME280;61559;50.476;15.588;2024-01-15T03:30:43;95623.27;;;-1.78;86.93
73106;BME280;61559;50.476;15.588;2024-01-15T03:33:15;95626.50;;;-1.78;86.61
73106;BME280;61559;50.476;15.588;2024-01-15T03:35:46;95627.48;;;-1.76;86.66
73106;BME280;61559;50.476;15.588;2024-01-15T03:38:17;95630.05;;;-1.75;86.56
73106;BME280;61559;50.476;15.588;2024-01-15T03:40:48;95630.95;;;-1.75;86.59
73106;BME280;61559;50.476;15.588;2024-01-15T03:43:20;95627.42;;;-1.75;86.17
73106;BME280;61559;50.476;15.588;2024-01-15T03:45:51;95627.95;;;-1.74;86.18
73106;BME280;61559;50.476;15.588;2024-01-15T03:48:22;95627.21;;;-1.73;85.91
73106;BME280;61559;50.476;15.588;2024-01-15T03:50:53;95632.75;;;-1.72;85.69
73106;BME280;61559;50.476;15.588;2024-01-15T03:53:24;95633.15;;;-1.71;85.65
73106;BME280;61559;50.476;15.588;2024-01-15T03:55:56;95631.23;;;-1.72;85.70
73106;BME280;61559;50.476;15.588;2024-01-15T03:58:27;95635.51;;;-1.71;85.55
73106;BME280;61559;50.476;15.588;2024-01-15T04:00:58;95617.15;;;-1.72;85.72
73106;BME280;61559;50.476;15.588;2024-01-15T04:03:30;95622.38;;;-1.71;85.38
73106;BME280;61559;50.476;15.588;2024-01-15T04:06:01;95621.45;;;-1.69;85.29
73106;BME280;61559;50.476;15.588;2024-01-15T04:08:32;95617.55;;;-1.68;85.52
73106;BME280;61559;50.476;15.588;2024-01-15T04:11:02;95618.15;;;-1.68;85.07
73106;BME280;61559;50.476;15.588;2024-01-15T04:13:34;95622.39;;;-1.68;84.96
73106;BME280;61559;50.476;15.588;2024-01-15T04:16:08;95624.02;;;-1.68;85.07
73106;BME280;61559;50.476;15.588;2024-01-15T04:18:39;95617.61;;;-1.68;84.76
73106;BME280;61559;50.476;15.588;2024-01-15T04:21:11;95608.13;;;-1.69;84.84
73106;BME280;61559;50.476;15.588;2024-01-15T04:23:42;95597.98;;;-1.69;84.51
73106;BME280;61559;50.476;15.588;2024-01-15T04:26:12;95589.60;;;-1.69;84.46
73106;BME280;61559;50.476;15.588;2024-01-15T04:28:43;95580.10;;;-1.71;84.80
73106;BME280;61559;50.476;15.588;2024-01-15T04:31:24;95585.08;;;-1.73;85.90
73106;BME280;61559;50.476;15.588;2024-01-15T04:33:57;95593.55;;;-1.78;86.48
73106;BME280;61559;50.476;15.588;2024-01-15T04:36:29;95601.02;;;-1.82;86.69
73106;BME280;61559;50.476;15.588;2024-01-15T04:39:00;95603.33;;;-1.85;86.46
73106;BME280;61559;50.476;15.588;2024-01-15T04:41:32;95598.48;;;-1.84;86.08
73106;BME280;61559;50.476;15.588;2024-01-15T04:44:03;95600.59;;;-1.84;86.04
73106;BME280;61559;50.476;15.588;2024-01-15T04:46:34;95597.77;;;-1.84;85.73
73106;BME280;61559;50.476;15.588;2024-01-15T04:49:05;95594.53;;;-1.84;85.33
73106;BME280;61559;50.476;15.588;2024-01-15T04:51:37;95590.48;;;-1.83;85.15
73106;BME280;61559;50.476;15.588;2024-01-15T04:54:07;95586.69;;;-1.81;85.15
73106;BME280;61559;50.476;15.588;2024-01-15T04:56:38;95575.78;;;-1.81;85.00
73106;BME280;61559;50.476;15.588;2024-01-15T04:59:09;95578.06;;;-1.82;84.80
73106;BME280;61559;50.476;15.588;2024-01-15T05:01:41;95575.84;;;-1.82;84.83
73106;BME280;61559;50.476;15.588;2024-01-15T05:04:12;95579.88;;;-1.82;84.67
73106;BME280;61559;50.476;15.588;2024-01-15T05:06:43;95585.09;;;-1.83;84.77
73106;BME280;61559;50.476;15.588;2024-01-15T05:09:15;95591.01;;;-1.84;85.31
73106;BME280;61559;50.476;15.588;2024-01-15T05:11:46;95590.69;;;-1.87;85.69
73106;BME280;61559;50.476;15.588;2024-01-15T05:14:16;95592.48;;;-1.88;85.93
73106;BME280;61559;50.476;15.588;2024-01-15T05:16:50;95589.09;;;-1.91;85.85
73106;BME280;61559;50.476;15.588;2024-01-15T05:19:21;95587.17;;;-1.92;86.03
73106;BME280;61559;50.476;15.588;2024-01-15T05:21:51;95583.71;;;-1.93;85.70
73106;BME280;61559;50.476;15.588;2024-01-15T05:24:22;95596.89;;;-1.94;85.76
73106;BME280;61559;50.476;15.588;2024-01-15T05:26:53;95596.67;;;-1.96;86.03
73106;BME280;61559;50.476;15.588;2024-01-15T05:29:24;95591.09;;;-1.97;86.41
73106;BME280;61559;50.476;15.588;2024-01-15T05:31:56;95598.63;;;-1.99;86.73
73106;BME280;61559;50.476;15.588;2024-01-15T05:34:31;95600.07;;;-2.02;86.71
73106;BME280;61559;50.476;15.588;2024-01-15T05:37:01;95598.02;;;-2.03;86.62
73106;BME280;61559;50.476;15.588;2024-01-15T05:39:32;95596.73;;;-2.05;86.54
73106;BME280;61559;50.476;15.588;2024-01-15T05:42:04;95597.39;;;-2.05;86.55
73106;BME280;61559;50.476;15.588;2024-01-15T05:44:34;95609.51;;;-2.06;86.84
73106;BME280;61559;50.476;15.588;2024-01-15T05:47:05;95610.23;;;-2.08;87.52
73106;BME280;61559;50.476;15.588;2024-01-15T05:49:36;95615.88;;;-2.11;88.37
73106;BME280;61559;50.476;15.588;2024-01-15T05:52:08;95611.48;;;-2.15;88.91
73106;BME280;61559;50.476;15.588;2024-01-15T05:54:39;95612.95;;;-2.19;89.24
73106;BME280;61559;50.476;15.588;2024-01-15T05:57:10;95622.70;;;-2.21;89.21
73106;BME280;61559;50.476;15.588;2024-01-15T05:59:42;95618.83;;;-2.22;89.10
73106;BME280;61559;50.476;15.588;2024-01-15T06:02:14;95624.08;;;-2.22;88.93
73106;BME280;61559;50.476;15.588;2024-01-15T06:04:45;95625.42;;;-2.21;88.96
73106;BME280;61559;50.476;15.588;2024-01-15T06:07:16;95629.30;;;-2.20;88.85
73106;BME280;61559;50.476;15.588;2024-01-15T06:09:47;95625.11;;;-2.19;88.74
73106;BME280;61559;50.476;15.588;2024-01-15T06:12:18;95631.19;;;-2.18;88.71
73106;BME280;61559;50.476;15.588;2024-01-15T06:14:49;95635.31;;;-2.17;88.53
73106;BME280;61559;50.476;15.588;2024-01-15T06:17:20;95638.67;;;-2.16;88.28
73106;BME280;61559;50.476;15.588;2024-01-15T06:19:52;95639.36;;;-2.14;88.18
73106;BME280;61559;50.476;15.588;2024-01-15T06:22:23;95645.55;;;-2.12;87.96
73106;BME280;61559;50.476;15.588;2024-01-15T06:24:54;95638.16;;;-2.11;87.83
73106;BME280;61559;50.476;15.588;2024-01-15T06:27:24;95647.98;;;-2.09;87.60
73106;BME280;61559;50.476;15.588;2024-01-15T06:29:55;95648.77;;;-2.08;87.40
73106;BME280;61559;50.476;15.588;2024-01-15T06:32:27;95656.05;;;-2.06;87.31
73106;BME280;61559;50.476;15.588;2024-01-15T06:34:58;95660.73;;;-2.04;87.20
73106;BME280;61559;50.476;15.588;2024-01-15T06:37:32;95660.59;;;-2.01;87.10
73106;BME280;61559;50.476;15.588;2024-01-15T06:40:04;95658.45;;;-1.99;86.88
73106;BME280;61559;50.476;15.588;2024-01-15T06:42:35;95659.53;;;-1.96;86.50
73106;BME280;61559;50.476;15.588;2024-01-15T06:45:09;95661.52;;;-1.93;86.54
73106;BME280;61559;50.476;15.588;2024-01-15T06:47:40;95664.82;;;-1.91;86.43
73106;BME280;61559;50.476;15.588;2024-01-15T06:50:12;95675.45;;;-1.89;86.46
73106;BME280;61559;50.476;15.588;2024-01-15T06:52:43;95673.11;;;-1.89;86.33
73106;BME280;61559;50.476;15.588;2024-01-15T06:55:14;95667.77;;;-1.89;86.04
73106;BME280;61559;50.476;15.588;2024-01-15T06:57:45;95671.35;;;-1.89;85.38
73106;BME280;61559;50.476;15.588;2024-01-15T07:00:18;95668.83;;;-1.89;85.32
73106;BME280;61559;50.476;15.588;2024-01-15T07:02:49;95659.15;;;-1.89;85.36
73106;BME280;61559;50.476;15.588;2024-01-15T07:05:21;95659.55;;;-1.90;85.14
73106;BME280;61559;50.476;15.588;2024-01-15T07:07:53;95659.67;;;-1.92;85.33
73106;BME280;61559;50.476;15.588;2024-01-15T07:10:23;95666.55;;;-1.92;85.18
73106;BME280;61559;50.476;15.588;2024-01-15T07:12:54;95670.29;;;-1.94;85.08
73106;BME280;61559;50.476;15.588;2024-01-15T07:15:25;95672.92;;;-1.94;84.74
73106;BME280;61559;50.476;15.588;2024-01-15T07:17:56;95676.21;;;-1.94;84.52
73106;BME280;61559;50.476;15.588;2024-01-15T07:20:29;95680.00;;;-1.95;84.36
73106;BME280;61559;50.476;15.588;2024-01-15T07:23:00;95680.12;;;-1.97;84.32
73106;BME280;61559;50.476;15.588;2024-01-15T07:25:31;95682.82;;;-1.99;83.95
73106;BME280;61559;50.476;15.588;2024-01-15T07:28:02;95684.25;;;-2.01;83.84
73106;BME280;61559;50.476;15.588;2024-01-15T07:30:33;95682.80;;;-2.02;83.61
73106;BME280;61559;50.476;15.588;2024-01-15T07:33:05;95685.13;;;-2.03;83.53
73106;BME280;61559;50.476;15.588;2024-01-15T07:35:37;95689.37;;;-2.03;82.98
73106;BME280;61559;50.476;15.588;2024-01-15T07:38:08;95696.23;;;-2.03;83.23
73106;BME280;61559;50.476;15.588;2024-01-15T07:40:41;95696.17;;;-2.02;83.22
73106;BME280;61559;50.476;15.588;2024-01-15T07:43:13;95692.16;;;-2.00;83.25
73106;BME280;61559;50.476;15.588;2024-01-15T07:45:44;95687.23;;;-1.97;83.02
73106;BME280;61559;50.476;15.588;2024-01-15T07:48:16;95686.22;;;-1.96;82.81
73106;BME280;61559;50.476;15.588;2024-01-15T07:50:47;95685.55;;;-1.96;82.60
73106;BME280;61559;50.476;15.588;2024-01-15T07:53:18;95687.80;;;-1.98;82.53
73106;BME280;61559;50.476;15.588;2024-01-15T07:55:49;95687.10;;;-1.98;82.28
73106;BME280;61559;50.476;15.588;2024-01-15T07:58:21;95686.36;;;-2.00;82.43
73106;BME280;61559;50.476;15.588;2024-01-15T08:00:52;95679.12;;;-2.02;81.93
73106;BME280;61559;50.476;15.588;2024-01-15T08:03:23;95686.59;;;-2.02;82.02
73106;BME280;61559;50.476;15.588;2024-01-15T08:05:55;95690.20;;;-2.05;81.89
73106;BME280;61559;50.476;15.588;2024-01-15T08:08:27;95694.44;;;-2.05;82.44
73106;BME280;61559;50.476;15.588;2024-01-15T08:10:58;95702.50;;;-2.05;82.48
73106;BME280;61559;50.476;15.588;2024-01-15T08:13:30;95702.65;;;-2.04;82.78
73106;BME280;61559;50.476;15.588;2024-01-15T08:16:01;95697.18;;;-2.02;82.82
73106;BME280;61559;50.476;15.588;2024-01-15T08:18:31;95689.48;;;-2.00;82.95
73106;BME280;61559;50.476;15.588;2024-01-15T08:21:02;95684.55;;;-1.96;82.47
73106;BME280;61559;50.476;15.588;2024-01-15T08:23:35;95692.84;;;-1.93;82.46
73106;BME280;61559;50.476;15.588;2024-01-15T08:26:06;95687.14;;;-1.89;82.16
73106;BME280;61559;50.476;15.588;2024-01-15T08:28:38;95695.55;;;-1.87;81.83
73106;BME280;61559;50.476;15.588;2024-01-15T08:31:09;95689.23;;;-1.87;81.68
73106;BME280;61559;50.476;15.588;2024-01-15T08:33:40;95692.81;;;-1.86;81.37
73106;BME280;61559;50.476;15.588;2024-01-15T08:36:12;95698.26;;;-1.86;81.40
73106;BME280;61559;50.476;15.588;2024-01-15T08:38:43;95699.81;;;-1.86;81.37
73106;BME280;61559;50.476;15.588;2024-01-15T08:41:14;95693.40;;;-1.84;81.17
73106;BME280;61559;50.476;15.588;2024-01-15T08:43:44;95692.08;;;-1.84;80.80
73106;BME280;61559;50.476;15.588;2024-01-15T08:46:15;95690.10;;;-1.83;80.83
73106;BME280;61559;50.476;15.588;2024-01-15T08:48:46;95692.39;;;-1.81;80.69
73106;BME280;61559;50.476;15.588;2024-01-15T08:51:17;95695.80;;;-1.79;80.51
73106;BME280;61559;50.476;15.588;2024-01-15T08:53:49;95693.06;;;-1.78;80.43
73106;BME280;61559;50.476;15.588;2024-01-15T08:56:19;95690.21;;;-1.74;80.46
73106;BME280;61559;50.476;15.588;2024-01-15T08:58:50;95693.02;;;-1.69;80.21
73106;BME280;61559;50.476;15.588;2024-01-15T09:01:21;95699.11;;;-1.64;80.20
73106;BME280;61559;50.476;15.588;2024-01-15T09:03:53;95697.41;;;-1.57;80.03
73106;BME280;61559;50.476;15.588;2024-01-15T09:06:24;95697.09;;;-1.51;79.61
73106;BME280;61559;50.476;15.588;2024-01-15T09:08:55;95702.05;;;-1.49;79.11
73106;BME280;61559;50.476;15.588;2024-01-15T09:11:26;95693.94;;;-1.47;79.04
73106;BME280;61559;50.476;15.588;2024-01-15T09:13:57;95702.85;;;-1.45;78.92
73106;BME280;61559;50.476;15.588;2024-01-15T09:16:29;95702.52;;;-1.43;78.97
73106;BME280;61559;50.476;15.588;2024-01-15T09:19:00;95699.41;;;-1.41;78.57
73106;BME280;61559;50.476;15.588;2024-01-15T09:21:32;95700.58;;;-1.37;78.15
73106;BME280;61559;50.476;15.588;2024-01-15T09:24:03;95704.84;;;-1.35;78.42
73106;BME280;61559;50.476;15.588;2024-01-15T09:26:35;95703.98;;;-1.35;77.78
73106;BME280;61559;50.476;15.588;2024-01-15T09:29:06;95717.30;;;-1.34;77.66
73106;BME280;61559;50.476;15.588;2024-01-15T09:31:37;95715.34;;;-1.35;77.72
73106;BME280;61559;50.476;15.588;2024-01-15T09:34:09;95723.30;;;-1.33;78.07
73106;BME280;61559;50.476;15.588;2024-01-15T09:36:42;95730.31;;;-1.32;78.08
73106;BME280;61559;50.476;15.588;2024-01-15T09:39:13;95733.86;;;-1.33;78.42
73106;BME280;61559;50.476;15.588;2024-01-15T09:41:46;95729.42;;;-1.34;78.70
73106;BME280;61559;50.476;15.588;2024-01-15T09:44:18;95730.90;;;-1.39;78.32
73106;BME280;61559;50.476;15.588;2024-01-15T09:46:49;95735.50;;;-1.43;78.93
73106;BME280;61559;50.476;15.588;2024-01-15T09:49:22;95730.02;;;-1.45;78.92
73106;BME280;61559;50.476;15.588;2024-01-15T09:51:54;95728.28;;;-1.46;78.95
73106;BME280;61559;50.476;15.588;2024-01-15T09:54:40;95724.56;;;-1.45;79.35
73106;BME280;61559;50.476;15.588;2024-01-15T09:57:14;95720.17;;;-1.45;78.66
73106;BME280;61559;50.476;15.588;2024-01-15T09:59:46;95711.91;;;-1.42;78.80
73106;BME280;61559;50.476;15.588;2024-01-15T10:02:18;95706.20;;;-1.38;78.74
73106;BME280;61559;50.476;15.588;2024-01-15T10:04:49;95702.01;;;-1.34;78.22
73106;BME280;61559;50.476;15.588;2024-01-15T10:07:20;95701.73;;;-1.33;77.59
73106;BME280;61559;50.476;15.588;2024-01-15T10:09:52;95699.99;;;-1.31;77.43
73106;BME280;61559;50.476;15.588;2024-01-15T10:12:23;95700.53;;;-1.29;77.29
73106;BME280;61559;50.476;15.588;2024-01-15T10:14:57;95702.08;;;-1.28;77.34
73106;BME280;61559;50.476;15.588;2024-01-15T10:17:28;95701.81;;;-1.27;77.19
73106;BME280;61559;50.476;15.588;2024-01-15T10:20:00;95692.98;;;-1.28;76.94
73106;BME280;61559;50.476;15.588;2024-01-15T10:22:34;95696.25;;;-1.27;76.50
73106;BME280;61559;50.476;15.588;2024-01-15T10:25:11;95697.70;;;-1.26;76.43
73106;BME280;61559;50.476;15.588;2024-01-15T10:27:43;95691.08;;;-1.26;76.28
73106;BME280;61559;50.476;15.588;2024-01-15T10:30:15;95692.57;;;-1.23;76.49
73106;BME280;61559;50.476;15.588;2024-01-15T10:32:59;95678.81;;;-1.23;75.87
73106;BME280;61559;50.476;15.588;2024-01-15T10:35:32;95677.79;;;-1.22;75.84
73106;BME280;61559;50.476;15.588;2024-01-15T10:38:05;95673.26;;;-1.19;75.90
73106;BME280;61559;50.476;15.588;2024-01-15T10:40:36;95677.99;;;-1.18;75.90
73106;BME280;61559;50.476;15.588;2024-01-15T10:43:07;95675.06;;;-1.18;75.66
73106;BME280;61559;50.476;15.588;2024-01-15T10:45:38;95683.58;;;-1.20;75.34
73106;BME280;61559;50.476;15.588;2024-01-15T10:48:09;95682.39;;;-1.22;75.57
73106;BME280;61559;50.476;15.588;2024-01-15T10:50:41;95680.39;;;-1.23;75.75
73106;BME280;61559;50.476;15.588;2024-01-15T10:53:13;95688.65;;;-1.25;75.61
73106;BME280;61559;50.476;15.588;2024-01-15T10:55:44;95685.37;;;-1.26;76.13
73106;BME280;61559;50.476;15.588;2024-01-15T10:58:18;95692.02;;;-1.24;76.04
73106;BME280;61559;50.476;15.588;2024-01-15T11:00:52;95684.52;;;-1.23;75.78
73106;BME280;61559;50.476;15.588;2024-01-15T11:03:23;95681.89;;;-1.22;75.44
73106;BME280;61559;50.476;15.588;2024-01-15T11:05:55;95681.83;;;-1.22;75.21
73106;BME280;61559;50.476;15.588;2024-01-15T11:08:27;95681.64;;;-1.22;75.60
73106;BME280;61559;50.476;15.588;2024-01-15T11:10:59;95678.38;;;-1.21;75.67
73106;BME280;61559;50.476;15.588;2024-01-15T11:13:42;95671.71;;;-1.21;74.92
73106;BME280;61559;50.476;15.588;2024-01-15T11:16:15;95679.93;;;-1.20;75.29
73106;BME280;61559;50.476;15.588;2024-01-15T11:19:02;95672.19;;;-1.19;75.49
73106;BME280;61559;50.476;15.588;2024-01-15T11:21:43;95675.56;;;-1.18;75.00
73106;BME280;61559;50.476;15.588;2024-01-15T11:24:35;95673.04;;;-1.17;75.06
73106;BME280;61559;50.476;15.588;2024-01-15T11:27:07;95674.56;;;-1.15;74.76
73106;BME280;61559;50.476;15.588;2024-01-15T11:29:39;95668.98;;;-1.13;75.17
73106;BME280;61559;50.476;15.588;2024-01-15T11:32:10;95670.30;;;-1.10;75.05
73106;BME280;61559;50.476;15.588;2024-01-15T11:34:58;95667.54;;;-1.08;74.77
73106;BME280;61559;50.476;15.588;2024-01-15T11:37:58;95664.73;;;-1.04;74.59
73106;BME280;61559;50.476;15.588;2024-01-15T11:40:40;95671.93;;;-1.02;74.07
73106;BME280;61559;50.476;15.588;2024-01-15T11:43:14;95675.16;;;-1.01;74.28
73106;BME280;61559;50.476;15.588;2024-01-15T11:45:53;95666.13;;;-0.99;74.37
73106;BME280;61559;50.476;15.588;2024-01-15T11:48:33;95667.33;;;-0.95;74.30
73106;BME280;61559;50.476;15.588;2024-01-15T11:51:13;95667.61;;;-0.91;74.47
73106;BME280;61559;50.476;15.588;2024-01-15T11:53:47;95665.16;;;-0.87;74.32
73106;BME280;61559;50.476;15.588;2024-01-15T11:56:22;95655.09;;;-0.83;73.58
73106;BME280;61559;50.476;15.588;2024-01-15T11:58:54;95648.67;;;-0.81;74.04
73106;BME280;61559;50.476;15.588;2024-01-15T12:01:26;95649.54;;;-0.78;73.88
73106;BME280;61559;50.476;15.588;2024-01-15T12:03:59;95646.91;;;-0.75;73.75
73106;BME280;61559;50.476;15.588;2024-01-15T12:06:30;95638.86;;;-0.71;73.33
73106;BME280;61559;50.476;15.588;2024-01-15T12:09:08;95640.83;;;-0.68;73.74
73106;BME280;61559;50.476;15.588;2024-01-15T12:11:42;95635.55;;;-0.64;73.75
73106;BME280;61559;50.476;15.588;2024-01-15T12:14:19;95639.94;;;-0.60;73.93
73106;BME280;61559;50.476;15.588;2024-01-15T12:16:51;95634.17;;;-0.57;74.00
73106;BME280;61559;50.476;15.588;2024-01-15T12:19:22;95635.30;;;-0.55;73.75
73106;BME280;61559;50.476;15.588;2024-01-15T12:21:54;95639.23;;;-0.56;73.42
73106;BME280;61559;50.476;15.588;2024-01-15T12:24:25;95635.05;;;-0.55;73.80
73106;BME280;61559;50.476;15.588;2024-01-15T12:26:56;95634.23;;;-0.52;73.59
73106;BME280;61559;50.476;15.588;2024-01-15T12:29:28;95629.98;;;-0.49;73.76
73106;BME280;61559;50.476;15.588;2024-01-15T12:31:59;95631.74;;;-0.49;73.66
73106;BME280;61559;50.476;15.588;2024-01-15T12:34:31;95627.05;;;-0.47;73.78
73106;BME280;61559;50.476;15.588;2024-01-15T12:37:01;95624.58;;;-0.45;73.89
73106;BME280;61559;50.476;15.588;2024-01-15T12:39:35;95626.30;;;-0.45;73.38
73106;BME280;61559;50.476;15.588;2024-01-15T12:42:06;95630.48;;;-0.44;73.48
73106;BME280;61559;50.476;15.588;2024-01-15T12:44:38;95627.11;;;-0.42;73.79
73106;BME280;61559;50.476;15.588;2024-01-15T12:47:10;95622.23;;;-0.40;73.85
73106;BME280;61559;50.476;15.588;2024-01-15T12:49:39;95615.70;;;-0.41;73.29
73106;BME280;61559;50.476;15.588;2024-01-15T12:52:12;95611.08;;;-0.45;72.66
73106;BME280;61559;50.476;15.588;2024-01-15T12:54:43;95613.98;;;-0.46;73.04
73106;BME280;61559;50.476;15.588;2024-01-15T12:57:12;95615.30;;;-0.48;72.81
73106;BME280;61559;50.476;15.588;2024-01-15T12:59:44;95613.63;;;-0.51;72.73
73106;BME280;61559;50.476;15.588;2024-01-15T13:02:15;95613.14;;;-0.52;72.81
73106;BME280;61559;50.476;15.588;2024-01-15T13:04:46;95614.04;;;-0.52;72.97
73106;BME280;61559;50.476;15.588;2024-01-15T13:07:18;95611.25;;;-0.51;73.07
73106;BME280;61559;50.476;15.588;2024-01-15T13:09:49;95612.25;;;-0.50;72.94
73106;BME280;61559;50.476;15.588;2024-01-15T13:12:23;95608.10;;;-0.50;72.50
73106;BME280;61559;50.476;15.588;2024-01-15T13:14:55;95608.30;;;-0.50;72.98